26 de setembro de 2022

Hora Código Clima Temp. Visibilidade Tecto Vento METAR/SPECI
13:25
I
11 °C 4,2 km 700 ft 190° 190° 11 kt METAR EHDL 261125Z AUTO 19011KT 120V260 4200 -SHRA +DZ FEW004 SCT005 BKN007 11/11 Q0998 YLO
12:55
I
11 °C 10 km+ 900 ft 190° 190° 11 kt METAR EHDL 261055Z AUTO 19011KT 120V270 9999 -DZ FEW005 SCT007 BKN009 11/10 Q0998 REDZ GRN
12:25
M
11 °C 10 km+ 1.500 ft 190° 190° 13 kt METAR EHDL 261025Z AUTO 19013KT 120V260 9999 -DZRA FEW009 SCT010 OVC015 11/10 Q0998 REDZ GRN
11:55
M
11 °C 8 km 1.400 ft 180° 180° 11 kt METAR EHDL 260955Z AUTO 18011KT 120V260 8000 -RA FEW008 SCT012 BKN014 11/10 Q0999 RERA REDZ GRN
11:25
M
11 °C 6 km 1.400 ft 190° 190° 11 kt METAR EHDL 260925Z AUTO 19011KT 100V270 6000 +DZ FEW011 BKN014 OVC017 11/09 Q0999 GRN
10:55
M
11 °C 10 km+ 2.000 ft 190° 190° 12 kt METAR EHDL 260855Z AUTO 19012KT 090V260 9999 BKN020 OVC051 11/09 Q1000 WHT
10:25
V
11 °C 10 km+ 3.100 ft 190° 190° 11 kt METAR EHDL 260825Z AUTO 19011KT 130V250 9999 SCT027 BKN031 BKN038 11/09 Q1000 BLU
09:55
V
11 °C 10 km+ 8.900 ft 190° 190° 12 kt METAR EHDL 260755Z AUTO 19012KT 110V250 9999 FEW030 SCT080 OVC089 11/08 Q1000 BLU
09:25
M
10 °C 10 km+ 2.800 ft 190° 190° 12 kt METAR EHDL 260725Z AUTO 19012KT 120V260 9999 DZ BKN028 OVC041 10/08 Q1001 BLU
08:55
M
10 °C 10 km+ 2.900 ft Var Var 11 kt METAR EHDL 260655Z AUTO VRB11KT 9999 DZRA BKN029 OVC033 10/08 Q1001 BLU
08:25
V
10 °C 10 km+ 4.300 ft 200° 200° 12 kt METAR EHDL 260625Z AUTO 20012KT 120V280 9999 -RADZ FEW033 SCT038 BKN043 10/08 Q1002 BLU
07:55
V
10 °C 10 km+ 7.100 ft 190° 190° 10 kt METAR EHDL 260555Z AUTO 19010KT 120V240 9999 -DZ FEW015CB SCT062 BKN071 10/08 Q1002 REDZ BLU
07:25
V
10 °C 10 km+ 4.600 ft Var Var 10 kt METAR EHDL 260525Z AUTO VRB10KT 9999 -RA FEW015CB BKN046 OVC050 10/08 Q1003 RERA REDZ BLU
06:55
V
10 °C 10 km+ 8.600 ft 200° 200° 10 kt METAR EHDL 260455Z AUTO 20010KT 140V250 9999 FEW059 SCT068 BKN086 10/08 Q1003 BLU
06:25
V
10 °C 10 km+ 6.400 ft 190° 190° 10 kt METAR EHDL 260425Z AUTO 19010KT 120V260 9999 -RA FEW048 SCT058 BKN064 10/08 Q1004 BLU
05:55
V
10 °C 10 km+ 5.800 ft 210° 210° 8 kt METAR EHDL 260355Z AUTO 21008KT 140V260 9999 -DZ FEW036 BKN058 BKN067 10/09 Q1005 REDZ BLU
05:25
V
11 °C 10 km+ 5.500 ft 210° 210° 9 kt METAR EHDL 260325Z AUTO 21009KT 140V270 9999 DZ FEW042 SCT048 BKN055 11/09 Q1005 BLU
04:55
V
11 °C 10 km+ 4.700 ft 210° 210° 8 kt METAR EHDL 260255Z AUTO 21008KT 150V280 9999 OVC047 11/09 Q1005 BLU
04:25
V
11 °C 10 km+ 9.100 ft 190° 190° 8 kt METAR EHDL 260225Z AUTO 19008KT 110V230 9999 FEW077 SCT085 OVC091 11/09 Q1006 BLU
03:55
V
10 °C 10 km+ 5.800 ft 180° 180° 6 kt METAR EHDL 260155Z AUTO 18006KT 120V220 9999 OVC058 10/10 Q1006 BLU
03:25
V
11 °C 10 km+ 4.400 ft 210° 210° 7 kt METAR EHDL 260125Z AUTO 21007KT 150V270 9999 SCT040 BKN044 OVC048 11/10 Q1007 REDZ BLU
02:55
M
11 °C 10 km+ 2.800 ft 200° 200° 8 kt METAR EHDL 260055Z AUTO 20008KT 140V280 9999 -RADZ FEW025 OVC028 11/09 Q1008 BLU
02:25
V
10 °C 10 km+ 6.100 ft 190° 190° 6 kt METAR EHDL 260025Z AUTO 19006KT 140V240 9999 FEW030 SCT048 OVC061 10/09 Q1008 BLU
01:55
V
10 °C 10 km+ 6.500 ft 200° 200° 5 kt METAR EHDL 252355Z AUTO 20005KT 130V220 9999 SCT041 SCT046 OVC065 10/09 Q1009 BLU
01:25
V
10 °C 10 km+ 5.700 ft 200° 200° 6 kt METAR EHDL 252325Z AUTO 20006KT 130V220 9999 BKN057 OVC063 10/09 Q1009 BLU
00:55
V
9 °C 10 km+ 6.600 ft 210° 210° 4 kt METAR EHDL 252255Z AUTO 21004KT 130V230 9999 FEW060 OVC066 09/08 Q1010 BLU
00:25
V
9 °C 10 km+ 5.700 ft 210° 210° 3 kt METAR EHDL 252225Z AUTO 21003KT 120V190 9999 SCT052 BKN057 OVC064 09/08 Q1010 BLU

25 de setembro de 2022

Hora Código Clima Temp. Visibilidade Tecto Vento METAR/SPECI
23:55
V
9 °C 10 km+ 6.600 ft Var Var 2 kt METAR EHDL 252155Z AUTO VRB02KT 9999 BKN066 OVC072 09/08 Q1011 BLU
23:25
V
9 °C 10 km+ 6.800 ft Var Var 1 kt METAR EHDL 252125Z AUTO VRB01KT 9999 OVC068 09/08 Q1011 BLU
22:55
V
8 °C 10 km+ 6.500 ft Var Var 2 kt METAR EHDL 252055Z AUTO VRB02KT 9999 BKN065 OVC240 08/07 Q1011 BLU
22:25
V
8 °C 10 km+ 24.000 ft Var Var 2 kt METAR EHDL 252025Z AUTO VRB02KT 9999 FEW069 OVC240 08/08 Q1012 BLU
21:55
V
9 °C 10 km+ 6.700 ft Var Var 2 kt METAR EHDL 251955Z AUTO VRB02KT 9999 OVC067 09/08 Q1012 BLU
21:25
V
9 °C 10 km+ 6.400 ft 210° 210° 2 kt METAR EHDL 251925Z AUTO 21002KT 9999 BKN064 BKN071 OVC250 09/08 Q1012 BLU
20:55
V
10 °C 10 km+ 6.000 ft 210° 210° 3 kt METAR EHDL 251855Z AUTO 21003KT 9999 BKN060 OVC066 10/09 Q1012 BLU
20:25
V
11 °C 10 km+ 7.500 ft Var Var 2 kt METAR EHDL 251825Z AUTO VRB02KT 9999 SCT061 BKN075 OVC370 11/09 Q1012 REDZ BLU
19:55
V
11 °C 10 km+ 5.300 ft 270° 270° 3 kt METAR EHDL 251755Z AUTO 27003KT 9999 FEW015CB BKN053 OVC059 11/09 Q1013 BLU
19:25
V
12 °C 10 km+ 8.500 ft 260° 260° 3 kt METAR EHDL 251725Z AUTO 26003KT 240V350 9999 SCT070 BKN085 BKN370 12/08 Q1013 BLU
18:55
V
14 °C 10 km+ - 290° 290° 4 kt METAR EHDL 251655Z AUTO 29004KT 250V020 9999 SCT380 14/08 Q1013 BLU
18:25
V
14 °C 10 km+ 7.300 ft 300° 300° 3 kt METAR EHDL 251625Z AUTO 30003KT 240V310 9999 FEW062 BKN073 BKN082 14/08 Q1013 BLU
17:55
V
15 °C 10 km+ - 310° 310° 6 kt METAR EHDL 251555Z AUTO 31006KT 270V010 9999 FEW072 15/07 Q1013 BLU
17:25
V
15 °C 10 km+ 6.500 ft 320° 320° 5 kt METAR EHDL 251525Z AUTO 32005KT 230V020 9999 OVC065 15/08 Q1013 BLU
16:55
V
15 °C 10 km+ 6.600 ft 320° 320° 7 kt METAR EHDL 251455Z AUTO 32007KT 230V360 9999 FEW041 BKN066 BKN072 15/08 Q1013 BLU
16:25
V
15 °C 10 km+ 6.300 ft 330° 330° 8 kt METAR EHDL 251425Z AUTO 33008KT 280V040 9999 OVC063 15/09 Q1013 BLU
15:55
M
16 °C 10 km+ 2.900 ft 330° 330° 9 kt METAR EHDL 251355Z AUTO 33009KT 280V050 9999 BKN029 OVC033 16/08 Q1014 BLU
15:25
V
16 °C 10 km+ 3.800 ft Var Var 7 kt METAR EHDL 251325Z AUTO VRB07KT 9999 BKN038 BKN046 BKN051 16/08 Q1014 BLU
14:55
V
16 °C 10 km+ - 320° 320° 5 kt METAR EHDL 251255Z AUTO 32005KT 240V010 9999 FEW034 16/07 Q1014 BLU
14:25
V
16 °C 10 km+ 3.000 ft 310° 310° 7 kt METAR EHDL 251225Z AUTO 31007KT 240V340 9999 BKN030 BKN037 16/07 Q1014 BLU
13:55
V
16 °C 10 km+ - 310° 310° 8 kt METAR EHDL 251155Z AUTO 31008KT 240V350 9999 NCD 16/09 Q1014 BLU
13:25
V
16 °C 10 km+ 7.300 ft Var Var 7 kt METAR EHDL 251125Z AUTO VRB07KT 9999 SCT068 BKN073 BKN079 16/08 Q1015 BLU
12:55
V
16 °C 10 km+ - 330° 330° 6 kt METAR EHDL 251055Z AUTO 33006KT 240V030 9999 SCT027 SCT033 16/08 Q1015 BLU
12:25
V
15 °C 10 km+ - Var Var 7 kt METAR EHDL 251025Z AUTO VRB07KT 9999 FEW022 15/09 Q1015 BLU
11:55
V
14 °C 10 km+ - 340° 340° 9 kt METAR EHDL 250955Z AUTO 34009KT 270V070 9999 NCD 14/09 Q1015 BLU
11:25
V
14 °C 10 km+ - 330° 330° 6 kt METAR EHDL 250925Z AUTO 33006KT 240V010 9999 NCD 14/09 Q1015 BLU
10:55
V
13 °C 10 km+ - 320° 320° 6 kt METAR EHDL 250855Z AUTO 32006KT 250V020 9999 NCD 13/10 Q1015 BLU
10:25
V
11 °C 10 km+ - 340° 340° 5 kt METAR EHDL 250825Z AUTO 34005KT 290V060 9999 NCD 11/10 Q1015 BLU
09:55
V
9 °C 10 km+ - Var Var 2 kt METAR EHDL 250755Z AUTO VRB02KT 9999 NCD 09/09 Q1015 BLU
09:25
I
8 °C 2,5 km - Var Var 2 kt METAR EHDL 250725Z AUTO VRB02KT 2500 BR OVC000 08/08 Q1015 RED
08:55
L
7 °C 200 m - Var Var 1 kt METAR EHDL 250655Z AUTO VRB01KT 0200 FG VV000 07/06 Q1015 RED
08:25
L
6 °C 200 m - Var Var 2 kt METAR EHDL 250625Z AUTO VRB02KT 0200 FG VV000 06/06 Q1015 RED
07:55
L
4 °C 200 m - Var Var 2 kt METAR EHDL 250555Z AUTO VRB02KT 0200 FG VV000 04/04 Q1015 RED
07:25
L
4 °C 200 m - 260° 260° 1 kt METAR EHDL 250525Z AUTO 26001KT 0200 FG VV000 04/04 Q1015 RED
06:55
L
4 °C 550 m - 220° 220° 1 kt METAR EHDL 250455Z AUTO 22001KT 0550 FG VV000 04/04 Q1015 RED
06:25
L
5 °C 800 m - 340° 340° 2 kt METAR EHDL 250425Z AUTO 34002KT 0800 FG BKN000 05/04 Q1015 RED
05:55
L
5 °C 1,4 km - 340° 340° 3 kt METAR EHDL 250355Z AUTO 34003KT 1400 BR FEW000 05/05 Q1015 AMB
05:25
I
5 °C 1,5 km - 320° 320° 1 kt METAR EHDL 250325Z AUTO 32001KT 1500 BR NCD 05/05 Q1015 AMB
04:55
L
6 °C 700 m - Var 000° 0 kt METAR EHDL 250255Z AUTO 00000KT 0700 // BKN000 06/06 Q1015 RED
04:25
I
5 °C 2,7 km - 280° 280° 1 kt METAR EHDL 250225Z AUTO 28001KT 2700 BR FEW000 05/05 Q1015 YLO
03:55
L
7 °C 1 km - 330° 330° 3 kt METAR EHDL 250155Z AUTO 33003KT 1000 BR NCD 07/06 Q1015 AMB
03:25
I
8 °C 2,5 km - 330° 330° 4 kt METAR EHDL 250125Z AUTO 33004KT 2500 BR NCD 08/07 Q1015 YLO
02:55
V
8 °C 10 km+ - 330° 330° 4 kt METAR EHDL 250055Z AUTO 33004KT 9999 NCD 08/08 Q1015 BLU
02:25
V
8 °C 10 km+ - 330° 330° 5 kt METAR EHDL 250025Z AUTO 33005KT 9999 NCD 08/08 Q1015 BLU RMK CB INFO NOT AVBL
01:55
V
8 °C 10 km+ - 330° 330° 4 kt METAR EHDL 242355Z AUTO 33004KT 9999 FEW066 08/08 Q1015 BLU
01:25
V
9 °C 10 km+ - 320° 320° 3 kt METAR EHDL 242325Z AUTO 32003KT 9999 NCD 09/09 Q1015 BLU
00:55
V
9 °C 10 km+ - 320° 320° 4 kt METAR EHDL 242255Z AUTO 32004KT 9999 FEW088 09/09 Q1015 BLU
00:25
V
10 °C 10 km+ 8.500 ft 330° 330° 4 kt METAR EHDL 242225Z AUTO 33004KT 340V040 9999 BKN085 10/09 Q1015 BLU

24 de setembro de 2022

Hora Código Clima Temp. Visibilidade Tecto Vento METAR/SPECI
23:55
V
11 °C 10 km+ 6.300 ft 330° 330° 5 kt METAR EHDL 242155Z AUTO 33005KT 300V010 9999 OVC063 11/10 Q1015 BLU
23:25
V
12 °C 10 km+ 6.200 ft 350° 350° 6 kt METAR EHDL 242125Z AUTO 35006KT 310V020 9999 OVC062 12/10 Q1015 BLU
22:55
V
12 °C 10 km+ 5.500 ft 340° 340° 5 kt METAR EHDL 242055Z AUTO 34005KT 300V010 9999 OVC055 12/11 Q1015 BLU
22:25
V
12 °C 10 km+ 8.300 ft 340° 340° 5 kt METAR EHDL 242025Z AUTO 34005KT 9999 FEW039 SCT059 OVC083 12/11 Q1015 BLU
21:55
V
12 °C 10 km+ 3.700 ft 350° 350° 5 kt METAR EHDL 241955Z AUTO 35005KT 320V030 9999 OVC037 12/11 Q1015 BLU
21:25
V
12 °C 10 km+ 3.100 ft 010° 010° 5 kt METAR EHDL 241925Z AUTO 01005KT 320V070 9999 BKN031 OVC035 12/11 Q1014 BLU
20:55
V
12 °C 10 km+ 4.500 ft 020° 020° 7 kt METAR EHDL 241855Z AUTO 02007KT 330V090 9999 FEW028 SCT032 OVC045 12/11 Q1014 BLU
20:25
V
12 °C 10 km+ 3.800 ft 010° 010° 7 kt METAR EHDL 241825Z AUTO 01007KT 330V060 9999 BKN038 BKN042 BKN056 12/11 Q1014 BLU
19:55
V
12 °C 10 km+ 3.400 ft 010° 010° 5 kt METAR EHDL 241755Z AUTO 01005KT 330V070 9999 FEW030 OVC034 12/11 Q1014 BLU
19:25
V
13 °C 10 km+ 7.400 ft 010° 010° 6 kt METAR EHDL 241725Z AUTO 01006KT 330V040 9999 FEW050 OVC074 13/12 Q1014 BLU
18:55
V
13 °C 10 km+ 3.000 ft 360° 360° 6 kt METAR EHDL 241655Z AUTO 36006KT 310V050 9999 -RA BKN030 BKN035 OVC074 13/12 Q1014 RERA REDZ BLU
18:25
V
13 °C 10 km+ 6.600 ft 360° 360° 5 kt METAR EHDL 241625Z AUTO 36005KT 330V050 9999 -RADZ OVC066 13/12 Q1013 BLU
17:55
V
13 °C 10 km+ 6.300 ft 010° 010° 7 kt METAR EHDL 241555Z AUTO 01007KT 310V070 9999 -RA FEW031 BKN063 OVC068 13/13 Q1013 RERA REDZ BLU
17:25
V
13 °C 10 km+ 5.600 ft 020° 020° 4 kt METAR EHDL 241525Z AUTO 02004KT 320V050 9999 +DZ FEW010 SCT016 OVC056 13/13 Q1013 WHT
16:55
V
13 °C 10 km+ 4.500 ft 020° 020° 6 kt METAR EHDL 241455Z AUTO 02006KT 330V080 9999 -RA FEW010 BKN045 OVC050 13/13 Q1013 RERA BLU
16:25
M
13 °C 8 km 2.900 ft 030° 030° 8 kt METAR EHDL 241425Z AUTO 03008KT 320V080 8000 -RADZ FEW007 SCT019 BKN029 13/13 Q1013 WHT
15:55
I
13 °C 4,8 km 600 ft 360° 360° 6 kt METAR EHDL 241355Z AUTO 36006KT 310V050 4800 -RA FEW003 BKN006 BKN007 13/13 Q1013 YLO
15:25
I
13 °C 3 km 700 ft Var Var 4 kt METAR EHDL 241325Z AUTO VRB04KT 3000 SHRA FEW003 BKN007 BKN011 13/13 Q1013 YLO
14:55
L
13 °C 3,5 km 400 ft Var Var 2 kt METAR EHDL 241255Z AUTO VRB02KT 3500 RA SCT003 BKN004 OVC008 13/13 Q1013 RERA REDZ YLO
14:25
M
13 °C 7 km 1.300 ft 210° 210° 4 kt METAR EHDL 241225Z AUTO 21004KT 140V250 7000 DZ FEW004 SCT006 BKN013 13/13 Q1013 YLO
13:55
M
13 °C 7 km 1.000 ft 220° 220° 4 kt METAR EHDL 241155Z AUTO 22004KT 170V260 7000 -RA FEW004 OVC010 13/13 Q1013 GRN
Dados mais antigos

Nós e terceiros acompanhamos seu comportamento na internet em nosso site com cookies. Se você continuar, nós assumimos que você concorda com nossa política de cookies. Saiba mais